sensor_id;sensor_type;location;lat;lon;timestamp;temperature;humidity
19538;DHT22;9914;51.008;4.300;2023-04-03T00:01:09;4.30;99.90
19538;DHT22;9914;51.008;4.300;2023-04-03T00:03:36;4.20;99.90
19538;DHT22;9914;51.008;4.300;2023-04-03T00:06:02;4.20;99.90
19538;DHT22;9914;51.008;4.300;2023-04-03T00:08:28;4.10;99.90
19538;DHT22;9914;51.008;4.300;2023-04-03T00:10:56;4.20;99.90
19538;DHT22;9914;51.008;4.300;2023-04-03T00:13:22;4.20;99.90
19538;DHT22;9914;51.008;4.300;2023-04-03T00:15:48;4.20;99.90
19538;DHT22;9914;51.008;4.300;2023-04-03T00:18:13;4.10;99.90
19538;DHT22;9914;51.008;4.300;2023-04-03T00:20:39;4.10;99.90
19538;DHT22;9914;51.008;4.300;2023-04-03T00:23:05;4.20;99.90
19538;DHT22;9914;51.008;4.300;2023-04-03T00:25:31;4.20;99.90
19538;DHT22;9914;51.008;4.300;2023-04-03T00:27:56;4.20;99.90
19538;DHT22;9914;51.008;4.300;2023-04-03T00:30:23;4.40;99.90
19538;DHT22;9914;51.008;4.300;2023-04-03T00:32:49;4.50;99.90
19538;DHT22;9914;51.008;4.300;2023-04-03T00:35:15;4.50;99.90
19538;DHT22;9914;51.008;4.300;2023-04-03T00:37:42;4.60;99.90
19538;DHT22;9914;51.008;4.300;2023-04-03T00:40:09;4.50;99.90
19538;DHT22;9914;51.008;4.300;2023-04-03T00:42:37;4.50;99.90
19538;DHT22;9914;51.008;4.300;2023-04-03T00:47:29;4.20;99.90
19538;DHT22;9914;51.008;4.300;2023-04-03T00:49:56;4.10;99.90
19538;DHT22;9914;51.008;4.300;2023-04-03T00:52:26;4.30;99.90
19538;DHT22;9914;51.008;4.300;2023-04-03T00:54:56;4.40;99.90
19538;DHT22;9914;51.008;4.300;2023-04-03T00:57:22;4.50;99.90
19538;DHT22;9914;51.008;4.300;2023-04-03T00:59:52;4.30;99.90
19538;DHT22;9914;51.008;4.300;2023-04-03T01:02:18;4.40;99.90
19538;DHT22;9914;51.008;4.300;2023-04-03T01:04:44;4.40;99.90
19538;DHT22;9914;51.008;4.300;2023-04-03T01:07:18;4.10;99.90
19538;DHT22;9914;51.008;4.300;2023-04-03T01:09:47;3.90;99.90
19538;DHT22;9914;51.008;4.300;2023-04-03T01:12:17;3.80;99.90
19538;DHT22;9914;51.008;4.300;2023-04-03T01:14:48;3.80;99.90
19538;DHT22;9914;51.008;4.300;2023-04-03T01:17:34;3.80;99.90
19538;DHT22;9914;51.008;4.300;2023-04-03T01:23:18;3.90;99.90
19538;DHT22;9914;51.008;4.300;2023-04-03T01:25:48;4.00;99.90
19538;DHT22;9914;51.008;4.300;2023-04-03T01:28:20;3.80;99.90
19538;DHT22;9914;51.008;4.300;2023-04-03T01:30:53;4.00;99.90
19538;DHT22;9914;51.008;4.300;2023-04-03T01:33:21;4.00;99.90
19538;DHT22;9914;51.008;4.300;2023-04-03T01:35:47;4.00;99.90
19538;DHT22;9914;51.008;4.300;2023-04-03T01:38:13;4.00;99.90
19538;DHT22;9914;51.008;4.300;2023-04-03T01:40:39;3.80;99.90
19538;DHT22;9914;51.008;4.300;2023-04-03T01:43:05;3.70;99.90
19538;DHT22;9914;51.008;4.300;2023-04-03T01:45:30;3.80;99.90
19538;DHT22;9914;51.008;4.300;2023-04-03T01:47:56;3.70;99.90
19538;DHT22;9914;51.008;4.300;2023-04-03T01:50:21;3.50;99.90
19538;DHT22;9914;51.008;4.300;2023-04-03T01:52:47;3.50;99.90
19538;DHT22;9914;51.008;4.300;2023-04-03T01:55:13;3.40;99.90
19538;DHT22;9914;51.008;4.300;2023-04-03T01:57:38;3.40;99.90
19538;DHT22;9914;51.008;4.300;2023-04-03T02:00:04;3.50;99.90
19538;DHT22;9914;51.008;4.300;2023-04-03T02:02:30;3.60;99.90
19538;DHT22;9914;51.008;4.300;2023-04-03T02:04:56;3.70;99.90
19538;DHT22;9914;51.008;4.300;2023-04-03T02:07:21;3.50;99.90
19538;DHT22;9914;51.008;4.300;2023-04-03T02:09:47;3.40;99.90
19538;DHT22;9914;51.008;4.300;2023-04-03T02:12:13;3.50;99.90
19538;DHT22;9914;51.008;4.300;2023-04-03T02:14:38;3.50;99.90
19538;DHT22;9914;51.008;4.300;2023-04-03T02:17:04;3.60;99.90
19538;DHT22;9914;51.008;4.300;2023-04-03T02:19:35;3.60;99.90
19538;DHT22;9914;51.008;4.300;2023-04-03T02:22:04;3.90;99.90
19538;DHT22;9914;51.008;4.300;2023-04-03T02:24:30;3.90;99.90
19538;DHT22;9914;51.008;4.300;2023-04-03T02:26:56;3.60;99.90
19538;DHT22;9914;51.008;4.300;2023-04-03T02:29:21;3.60;99.90
19538;DHT22;9914;51.008;4.300;2023-04-03T02:31:47;3.50;99.90
19538;DHT22;9914;51.008;4.300;2023-04-03T02:34:13;3.50;99.90
19538;DHT22;9914;51.008;4.300;2023-04-03T02:36:39;3.50;99.90
19538;DHT22;9914;51.008;4.300;2023-04-03T02:39:04;3.40;99.90
19538;DHT22;9914;51.008;4.300;2023-04-03T02:41:30;3.40;99.90
19538;DHT22;9914;51.008;4.300;2023-04-03T02:44:01;3.60;99.90
19538;DHT22;9914;51.008;4.300;2023-04-03T02:46:27;3.70;99.90
19538;DHT22;9914;51.008;4.300;2023-04-03T02:48:53;3.70;99.90
19538;DHT22;9914;51.008;4.300;2023-04-03T02:51:18;3.60;99.90
19538;DHT22;9914;51.008;4.300;2023-04-03T02:53:44;3.40;99.90
19538;DHT22;9914;51.008;4.300;2023-04-03T02:56:09;3.40;99.90
19538;DHT22;9914;51.008;4.300;2023-04-03T02:58:35;3.20;99.90
19538;DHT22;9914;51.008;4.300;2023-04-03T03:01:01;3.20;99.90
19538;DHT22;9914;51.008;4.300;2023-04-03T03:03:27;3.20;99.90
19538;DHT22;9914;51.008;4.300;2023-04-03T03:06:14;3.10;99.90
19538;DHT22;9914;51.008;4.300;2023-04-03T03:08:40;3.10;99.90
19538;DHT22;9914;51.008;4.300;2023-04-03T03:11:06;3.10;99.90
19538;DHT22;9914;51.008;4.300;2023-04-03T03:13:32;3.20;99.90
19538;DHT22;9914;51.008;4.300;2023-04-03T03:15:58;3.30;99.90
19538;DHT22;9914;51.008;4.300;2023-04-03T03:18:24;3.30;99.90
19538;DHT22;9914;51.008;4.300;2023-04-03T03:20:55;3.30;99.90
19538;DHT22;9914;51.008;4.300;2023-04-03T03:23:22;3.20;99.90
19538;DHT22;9914;51.008;4.300;2023-04-03T03:25:48;3.30;99.90
19538;DHT22;9914;51.008;4.300;2023-04-03T03:28:13;3.30;99.90
19538;DHT22;9914;51.008;4.300;2023-04-03T03:30:40;3.20;99.90
19538;DHT22;9914;51.008;4.300;2023-04-03T03:33:05;3.30;99.90
19538;DHT22;9914;51.008;4.300;2023-04-03T03:35:31;3.30;99.90
19538;DHT22;9914;51.008;4.300;2023-04-03T03:37:56;3.40;99.90
19538;DHT22;9914;51.008;4.300;2023-04-03T03:40:22;3.20;99.90
19538;DHT22;9914;51.008;4.300;2023-04-03T03:42:48;3.10;99.90
19538;DHT22;9914;51.008;4.300;2023-04-03T03:45:13;3.00;99.90
19538;DHT22;9914;51.008;4.300;2023-04-03T03:47:39;2.90;99.90
19538;DHT22;9914;51.008;4.300;2023-04-03T03:50:06;2.90;99.90
19538;DHT22;9914;51.008;4.300;2023-04-03T03:52:31;2.90;99.90
19538;DHT22;9914;51.008;4.300;2023-04-03T03:54:57;2.90;99.90
19538;DHT22;9914;51.008;4.300;2023-04-03T03:57:22;3.00;99.90
19538;DHT22;9914;51.008;4.300;2023-04-03T03:59:48;3.00;99.90
19538;DHT22;9914;51.008;4.300;2023-04-03T04:02:14;2.90;99.90
19538;DHT22;9914;51.008;4.300;2023-04-03T04:04:40;2.90;99.90
19538;DHT22;9914;51.008;4.300;2023-04-03T04:07:06;2.70;99.90
19538;DHT22;9914;51.008;4.300;2023-04-03T04:09:31;2.80;99.90
19538;DHT22;9914;51.008;4.300;2023-04-03T04:11:57;2.80;99.90
19538;DHT22;9914;51.008;4.300;2023-04-03T04:14:23;2.90;99.90
19538;DHT22;9914;51.008;4.300;2023-04-03T04:16:48;2.90;99.90
19538;DHT22;9914;51.008;4.300;2023-04-03T04:19:14;2.90;99.90
19538;DHT22;9914;51.008;4.300;2023-04-03T04:21:40;2.80;99.90
19538;DHT22;9914;51.008;4.300;2023-04-03T04:24:07;2.70;99.90
19538;DHT22;9914;51.008;4.300;2023-04-03T04:26:32;2.80;99.90
19538;DHT22;9914;51.008;4.300;2023-04-03T04:28:58;2.80;99.90
19538;DHT22;9914;51.008;4.300;2023-04-03T04:31:23;2.80;99.90
19538;DHT22;9914;51.008;4.300;2023-04-03T04:33:49;2.90;99.90
19538;DHT22;9914;51.008;4.300;2023-04-03T04:36:15;2.80;99.90
19538;DHT22;9914;51.008;4.300;2023-04-03T04:38:41;2.80;99.90
19538;DHT22;9914;51.008;4.300;2023-04-03T04:41:07;2.80;99.90
19538;DHT22;9914;51.008;4.300;2023-04-03T04:43:33;2.80;99.90
19538;DHT22;9914;51.008;4.300;2023-04-03T04:46:08;2.80;99.90
19538;DHT22;9914;51.008;4.300;2023-04-03T04:48:35;2.80;99.90
19538;DHT22;9914;51.008;4.300;2023-04-03T04:51:01;2.80;99.90
19538;DHT22;9914;51.008;4.300;2023-04-03T04:53:27;2.80;99.90
19538;DHT22;9914;51.008;4.300;2023-04-03T04:55:53;2.80;99.90
19538;DHT22;9914;51.008;4.300;2023-04-03T04:58:19;2.90;99.90
19538;DHT22;9914;51.008;4.300;2023-04-03T05:00:45;2.90;99.90
19538;DHT22;9914;51.008;4.300;2023-04-03T05:03:11;2.90;99.90
19538;DHT22;9914;51.008;4.300;2023-04-03T05:05:36;2.90;99.90
19538;DHT22;9914;51.008;4.300;2023-04-03T05:08:03;2.90;99.90
19538;DHT22;9914;51.008;4.300;2023-04-03T05:10:29;2.80;99.90
19538;DHT22;9914;51.008;4.300;2023-04-03T05:12:56;2.80;99.90
19538;DHT22;9914;51.008;4.300;2023-04-03T05:15:22;2.80;99.90
19538;DHT22;9914;51.008;4.300;2023-04-03T05:17:47;2.80;99.90
19538;DHT22;9914;51.008;4.300;2023-04-03T05:20:13;2.80;99.90
19538;DHT22;9914;51.008;4.300;2023-04-03T05:22:39;2.80;99.90
19538;DHT22;9914;51.008;4.300;2023-04-03T05:25:05;2.80;99.90
19538;DHT22;9914;51.008;4.300;2023-04-03T05:27:31;2.80;99.90
19538;DHT22;9914;51.008;4.300;2023-04-03T05:29:57;2.90;99.90
19538;DHT22;9914;51.008;4.300;2023-04-03T05:32:23;2.80;99.90
19538;DHT22;9914;51.008;4.300;2023-04-03T05:34:50;2.70;99.90
19538;DHT22;9914;51.008;4.300;2023-04-03T05:37:17;2.70;99.90
19538;DHT22;9914;51.008;4.300;2023-04-03T05:39:42;2.70;99.90
19538;DHT22;9914;51.008;4.300;2023-04-03T05:42:08;2.70;99.90
19538;DHT22;9914;51.008;4.300;2023-04-03T05:44:34;2.80;99.90
19538;DHT22;9914;51.008;4.300;2023-04-03T05:47:00;2.80;99.90
19538;DHT22;9914;51.008;4.300;2023-04-03T05:49:26;2.80;99.90
19538;DHT22;9914;51.008;4.300;2023-04-03T05:51:51;2.80;99.90
19538;DHT22;9914;51.008;4.300;2023-04-03T05:54:23;2.80;99.90
19538;DHT22;9914;51.008;4.300;2023-04-03T05:56:50;2.80;99.90
19538;DHT22;9914;51.008;4.300;2023-04-03T05:59:17;2.80;99.90
19538;DHT22;9914;51.008;4.300;2023-04-03T06:01:43;2.90;99.90
19538;DHT22;9914;51.008;4.300;2023-04-03T06:04:09;2.80;99.90
19538;DHT22;9914;51.008;4.300;2023-04-03T06:06:50;2.90;99.90
19538;DHT22;9914;51.008;4.300;2023-04-03T06:09:18;2.90;99.90
19538;DHT22;9914;51.008;4.300;2023-04-03T06:11:45;2.90;99.90
19538;DHT22;9914;51.008;4.300;2023-04-03T06:14:11;2.90;99.90
19538;DHT22;9914;51.008;4.300;2023-04-03T06:16:37;3.00;99.90
19538;DHT22;9914;51.008;4.300;2023-04-03T06:19:03;3.10;99.90
19538;DHT22;9914;51.008;4.300;2023-04-03T06:21:30;3.10;99.90
19538;DHT22;9914;51.008;4.300;2023-04-03T06:23:55;3.20;99.90
19538;DHT22;9914;51.008;4.300;2023-04-03T06:26:21;3.40;99.90
19538;DHT22;9914;51.008;4.300;2023-04-03T06:28:47;3.40;99.90
19538;DHT22;9914;51.008;4.300;2023-04-03T06:31:13;3.40;99.90
19538;DHT22;9914;51.008;4.300;2023-04-03T06:33:39;3.70;99.90
19538;DHT22;9914;51.008;4.300;2023-04-03T06:36:05;3.60;99.90
19538;DHT22;9914;51.008;4.300;2023-04-03T06:38:32;3.90;99.90
19538;DHT22;9914;51.008;4.300;2023-04-03T06:40:57;3.90;99.90
19538;DHT22;9914;51.008;4.300;2023-04-03T06:43:23;4.10;99.90
19538;DHT22;9914;51.008;4.300;2023-04-03T06:45:49;4.40;99.90
19538;DHT22;9914;51.008;4.300;2023-04-03T06:48:16;4.50;99.90
19538;DHT22;9914;51.008;4.300;2023-04-03T06:50:42;4.40;99.90
19538;DHT22;9914;51.008;4.300;2023-04-03T06:53:07;4.10;99.90
19538;DHT22;9914;51.008;4.300;2023-04-03T06:55:33;4.10;99.90
19538;DHT22;9914;51.008;4.300;2023-04-03T06:57:59;4.30;99.90
19538;DHT22;9914;51.008;4.300;2023-04-03T07:00:26;4.30;99.90
19538;DHT22;9914;51.008;4.300;2023-04-03T07:02:51;4.60;99.90
19538;DHT22;9914;51.008;4.300;2023-04-03T07:05:17;4.70;99.90
19538;DHT22;9914;51.008;4.300;2023-04-03T07:07:43;4.80;99.90
19538;DHT22;9914;51.008;4.300;2023-04-03T07:10:09;4.90;99.90
19538;DHT22;9914;51.008;4.300;2023-04-03T07:12:35;4.90;99.90
19538;DHT22;9914;51.008;4.300;2023-04-03T07:15:01;5.10;99.90
19538;DHT22;9914;51.008;4.300;2023-04-03T07:17:27;5.10;99.90
19538;DHT22;9914;51.008;4.300;2023-04-03T07:19:53;5.00;99.90
19538;DHT22;9914;51.008;4.300;2023-04-03T07:22:18;5.20;99.90
19538;DHT22;9914;51.008;4.300;2023-04-03T07:24:44;5.10;99.90
19538;DHT22;9914;51.008;4.300;2023-04-03T07:27:09;5.30;99.90
19538;DHT22;9914;51.008;4.300;2023-04-03T07:29:38;5.50;99.90
19538;DHT22;9914;51.008;4.300;2023-04-03T07:32:05;5.40;99.90
19538;DHT22;9914;51.008;4.300;2023-04-03T07:34:32;5.50;99.90
19538;DHT22;9914;51.008;4.300;2023-04-03T07:36:58;5.60;99.90
19538;DHT22;9914;51.008;4.300;2023-04-03T07:39:24;5.80;99.90
19538;DHT22;9914;51.008;4.300;2023-04-03T07:41:51;5.80;99.90
19538;DHT22;9914;51.008;4.300;2023-04-03T07:44:17;5.80;99.90
19538;DHT22;9914;51.008;4.300;2023-04-03T07:46:43;5.90;99.90
19538;DHT22;9914;51.008;4.300;2023-04-03T07:49:08;5.80;99.90
19538;DHT22;9914;51.008;4.300;2023-04-03T07:51:34;5.70;99.90
19538;DHT22;9914;51.008;4.300;2023-04-03T07:54:00;5.70;99.90
19538;DHT22;9914;51.008;4.300;2023-04-03T07:56:26;5.50;99.90
19538;DHT22;9914;51.008;4.300;2023-04-03T07:58:51;5.70;99.90
19538;DHT22;9914;51.008;4.300;2023-04-03T08:01:17;5.80;99.90
19538;DHT22;9914;51.008;4.300;2023-04-03T08:03:43;5.90;99.90
19538;DHT22;9914;51.008;4.300;2023-04-03T08:06:09;6.20;99.90
19538;DHT22;9914;51.008;4.300;2023-04-03T08:08:34;6.50;99.90
19538;DHT22;9914;51.008;4.300;2023-04-03T08:11:01;6.70;99.90
19538;DHT22;9914;51.008;4.300;2023-04-03T08:13:28;6.40;99.90
19538;DHT22;9914;51.008;4.300;2023-04-03T08:15:54;6.50;99.90
19538;DHT22;9914;51.008;4.300;2023-04-03T08:18:21;6.30;99.90
19538;DHT22;9914;51.008;4.300;2023-04-03T08:20:50;6.20;99.90
19538;DHT22;9914;51.008;4.300;2023-04-03T08:23:15;6.30;99.90
19538;DHT22;9914;51.008;4.300;2023-04-03T08:25:43;6.40;99.90
19538;DHT22;9914;51.008;4.300;2023-04-03T08:28:10;6.50;99.90
19538;DHT22;9914;51.008;4.300;2023-04-03T08:30:39;6.70;99.90
19538;DHT22;9914;51.008;4.300;2023-04-03T08:33:05;6.90;99.90
19538;DHT22;9914;51.008;4.300;2023-04-03T08:35:31;7.10;99.90
19538;DHT22;9914;51.008;4.300;2023-04-03T08:37:57;7.00;99.90
19538;DHT22;9914;51.008;4.300;2023-04-03T08:40:24;6.80;99.90
19538;DHT22;9914;51.008;4.300;2023-04-03T08:43:03;7.10;99.90
19538;DHT22;9914;51.008;4.300;2023-04-03T08:45:50;7.40;99.90
19538;DHT22;9914;51.008;4.300;2023-04-03T08:50:50;7.50;99.90
19538;DHT22;9914;51.008;4.300;2023-04-03T08:53:25;7.70;99.90
19538;DHT22;9914;51.008;4.300;2023-04-03T08:55:54;7.70;99.90
19538;DHT22;9914;51.008;4.300;2023-04-03T08:58:29;7.70;99.90
19538;DHT22;9914;51.008;4.300;2023-04-03T09:03:24;7.80;99.90
19538;DHT22;9914;51.008;4.300;2023-04-03T09:05:53;7.90;99.90
19538;DHT22;9914;51.008;4.300;2023-04-03T09:08:29;8.10;99.90
19538;DHT22;9914;51.008;4.300;2023-04-03T09:14:02;7.70;99.90
19538;DHT22;9914;51.008;4.300;2023-04-03T09:21:45;8.30;99.90
19538;DHT22;9914;51.008;4.300;2023-04-03T09:24:14;7.80;99.90
19538;DHT22;9914;51.008;4.300;2023-04-03T09:27:00;7.70;99.90
19538;DHT22;9914;51.008;4.300;2023-04-03T09:29:27;8.00;99.90
19538;DHT22;9914;51.008;4.300;2023-04-03T09:32:00;8.30;99.90
19538;DHT22;9914;51.008;4.300;2023-04-03T09:34:29;8.50;99.90
19538;DHT22;9914;51.008;4.300;2023-04-03T09:36:57;8.40;99.90
19538;DHT22;9914;51.008;4.300;2023-04-03T09:39:28;8.40;99.90
19538;DHT22;9914;51.008;4.300;2023-04-03T09:42:05;8.60;99.90
19538;DHT22;9914;51.008;4.300;2023-04-03T09:44:35;8.80;99.90
19538;DHT22;9914;51.008;4.300;2023-04-03T09:47:36;8.90;99.90
19538;DHT22;9914;51.008;4.300;2023-04-03T09:52:42;9.00;99.90
19538;DHT22;9914;51.008;4.300;2023-04-03T09:55:15;9.20;99.90
19538;DHT22;9914;51.008;4.300;2023-04-03T09:57:41;9.10;99.90
19538;DHT22;9914;51.008;4.300;2023-04-03T10:00:26;9.20;99.90
19538;DHT22;9914;51.008;4.300;2023-04-03T10:02:55;9.20;99.90
19538;DHT22;9914;51.008;4.300;2023-04-03T10:05:38;9.20;99.90
19538;DHT22;9914;51.008;4.300;2023-04-03T10:10:44;9.30;99.90
19538;DHT22;9914;51.008;4.300;2023-04-03T10:15:43;9.80;99.90
19538;DHT22;9914;51.008;4.300;2023-04-03T10:18:33;10.00;99.90
19538;DHT22;9914;51.008;4.300;2023-04-03T10:21:26;9.80;99.90
19538;DHT22;9914;51.008;4.300;2023-04-03T10:27:31;9.40;99.90
19538;DHT22;9914;51.008;4.300;2023-04-03T10:29:59;9.50;99.90
19538;DHT22;9914;51.008;4.300;2023-04-03T10:41:10;10.10;99.90
19538;DHT22;9914;51.008;4.300;2023-04-03T10:43:59;9.80;99.90
19538;DHT22;9914;51.008;4.300;2023-04-03T10:46:44;9.70;99.90
19538;DHT22;9914;51.008;4.300;2023-04-03T10:55:16;10.20;99.90
19538;DHT22;9914;51.008;4.300;2023-04-03T10:57:47;10.40;99.90
19538;DHT22;9914;51.008;4.300;2023-04-03T11:00:25;10.30;99.90
19538;DHT22;9914;51.008;4.300;2023-04-03T11:02:56;10.30;99.90
19538;DHT22;9914;51.008;4.300;2023-04-03T11:05:44;10.50;99.90
19538;DHT22;9914;51.008;4.300;2023-04-03T11:10:55;10.40;99.90
19538;DHT22;9914;51.008;4.300;2023-04-03T11:13:34;10.90;99.90
19538;DHT22;9914;51.008;4.300;2023-04-03T11:16:02;10.80;99.90
19538;DHT22;9914;51.008;4.300;2023-04-03T11:18:51;10.90;99.90
19538;DHT22;9914;51.008;4.300;2023-04-03T11:22:04;10.80;99.90
19538;DHT22;9914;51.008;4.300;2023-04-03T11:24:05;10.80;99.90
19538;DHT22;9914;51.008;4.300;2023-04-03T11:26:40;10.80;99.90
19538;DHT22;9914;51.008;4.300;2023-04-03T11:29:13;10.50;99.90
19538;DHT22;9914;51.008;4.300;2023-04-03T11:32:09;10.50;99.90
19538;DHT22;9914;51.008;4.300;2023-04-03T11:34:42;10.50;99.90
19538;DHT22;9914;51.008;4.300;2023-04-03T11:37:38;10.50;99.90
19538;DHT22;9914;51.008;4.300;2023-04-03T11:42:40;10.70;99.90
19538;DHT22;9914;51.008;4.300;2023-04-03T12:00:59;10.90;99.90
19538;DHT22;9914;51.008;4.300;2023-04-03T12:29:34;11.80;99.90
19538;DHT22;9914;51.008;4.300;2023-04-03T12:40:49;11.30;99.90
19538;DHT22;9914;51.008;4.300;2023-04-03T12:46:20;11.30;99.90
19538;DHT22;9914;51.008;4.300;2023-04-03T12:48:56;11.50;99.90
19538;DHT22;9914;51.008;4.300;2023-04-03T12:51:34;11.60;99.90
19538;DHT22;9914;51.008;4.300;2023-04-03T12:54:12;11.70;99.90
19538;DHT22;9914;51.008;4.300;2023-04-03T12:56:39;11.50;99.90
19538;DHT22;9914;51.008;4.300;2023-04-03T13:01:43;11.50;99.90
19538;DHT22;9914;51.008;4.300;2023-04-03T13:04:11;11.40;99.90
19538;DHT22;9914;51.008;4.300;2023-04-03T13:06:42;11.30;99.90
19538;DHT22;9914;51.008;4.300;2023-04-03T13:09:24;11.10;99.90
19538;DHT22;9914;51.008;4.300;2023-04-03T13:11:59;11.10;99.90
19538;DHT22;9914;51.008;4.300;2023-04-03T13:14:27;11.10;99.90
19538;DHT22;9914;51.008;4.300;2023-04-03T13:19:29;11.30;99.90
19538;DHT22;9914;51.008;4.300;2023-04-03T13:22:07;11.30;99.90
19538;DHT22;9914;51.008;4.300;2023-04-03T13:24:37;11.40;99.90
19538;DHT22;9914;51.008;4.300;2023-04-03T13:27:04;11.30;99.90
19538;DHT22;9914;51.008;4.300;2023-04-03T13:29:33;11.50;99.90
19538;DHT22;9914;51.008;4.300;2023-04-03T13:32:01;11.70;99.90
19538;DHT22;9914;51.008;4.300;2023-04-03T13:34:35;11.70;99.90
19538;DHT22;9914;51.008;4.300;2023-04-03T13:37:02;11.80;99.90
19538;DHT22;9914;51.008;4.300;2023-04-03T13:39:36;11.70;99.90
19538;DHT22;9914;51.008;4.300;2023-04-03T13:42:24;11.50;99.90
19538;DHT22;9914;51.008;4.300;2023-04-03T13:47:50;11.50;99.90
19538;DHT22;9914;51.008;4.300;2023-04-03T13:50:22;11.60;99.90
19538;DHT22;9914;51.008;4.300;2023-04-03T13:52:59;11.60;99.90
19538;DHT22;9914;51.008;4.300;2023-04-03T13:55:28;11.50;99.90
19538;DHT22;9914;51.008;4.300;2023-04-03T13:58:25;11.60;99.90
19538;DHT22;9914;51.008;4.300;2023-04-03T14:01:00;11.70;99.90
19538;DHT22;9914;51.008;4.300;2023-04-03T14:03:50;11.60;99.90
19538;DHT22;9914;51.008;4.300;2023-04-03T14:06:17;11.80;99.90
19538;DHT22;9914;51.008;4.300;2023-04-03T14:08:44;12.10;99.90
19538;DHT22;9914;51.008;4.300;2023-04-03T14:11:37;12.20;99.90
19538;DHT22;9914;51.008;4.300;2023-04-03T14:14:09;12.20;99.90
19538;DHT22;9914;51.008;4.300;2023-04-03T14:16:39;12.20;99.90
19538;DHT22;9914;51.008;4.300;2023-04-03T14:19:06;11.80;99.50
19538;DHT22;9914;51.008;4.300;2023-04-03T14:21:31;11.90;99.90
19538;DHT22;9914;51.008;4.300;2023-04-03T14:23:57;11.70;99.90
19538;DHT22;9914;51.008;4.300;2023-04-03T14:26:24;11.60;99.90
19538;DHT22;9914;51.008;4.300;2023-04-03T14:28:53;11.60;99.90
19538;DHT22;9914;51.008;4.300;2023-04-03T14:31:19;11.40;99.90
19538;DHT22;9914;51.008;4.300;2023-04-03T14:33:46;11.50;99.90
19538;DHT22;9914;51.008;4.300;2023-04-03T14:36:17;11.50;99.90
19538;DHT22;9914;51.008;4.300;2023-04-03T14:38:44;11.30;99.90
19538;DHT22;9914;51.008;4.300;2023-04-03T14:41:15;11.50;99.90
19538;DHT22;9914;51.008;4.300;2023-04-03T14:43:41;11.80;99.90
19538;DHT22;9914;51.008;4.300;2023-04-03T14:46:15;11.70;99.90
19538;DHT22;9914;51.008;4.300;2023-04-03T14:48:42;11.60;99.90
19538;DHT22;9914;51.008;4.300;2023-04-03T14:51:10;11.50;99.90
19538;DHT22;9914;51.008;4.300;2023-04-03T14:53:36;11.80;99.50
19538;DHT22;9914;51.008;4.300;2023-04-03T14:56:09;11.70;98.30
19538;DHT22;9914;51.008;4.300;2023-04-03T14:58:36;11.80;98.10
19538;DHT22;9914;51.008;4.300;2023-04-03T15:01:02;11.80;98.50
19538;DHT22;9914;51.008;4.300;2023-04-03T15:03:28;11.80;99.10
19538;DHT22;9914;51.008;4.300;2023-04-03T15:05:54;11.70;99.30
19538;DHT22;9914;51.008;4.300;2023-04-03T15:08:25;11.60;99.90
19538;DHT22;9914;51.008;4.300;2023-04-03T15:10:52;11.80;99.00
19538;DHT22;9914;51.008;4.300;2023-04-03T15:13:21;11.80;98.50
19538;DHT22;9914;51.008;4.300;2023-04-03T15:15:47;11.90;99.10
19538;DHT22;9914;51.008;4.300;2023-04-03T15:18:20;11.90;99.30
19538;DHT22;9914;51.008;4.300;2023-04-03T15:20:47;11.60;98.90
19538;DHT22;9914;51.008;4.300;2023-04-03T15:23:14;11.50;98.30
19538;DHT22;9914;51.008;4.300;2023-04-03T15:25:45;11.50;97.90
19538;DHT22;9914;51.008;4.300;2023-04-03T15:28:22;11.70;97.80
19538;DHT22;9914;51.008;4.300;2023-04-03T15:30:48;12.00;98.40
19538;DHT22;9914;51.008;4.300;2023-04-03T15:33:14;12.10;98.50
19538;DHT22;9914;51.008;4.300;2023-04-03T15:35:41;12.50;98.60
19538;DHT22;9914;51.008;4.300;2023-04-03T15:38:07;13.20;97.10
19538;DHT22;9914;51.008;4.300;2023-04-03T15:40:32;14.10;95.60
19538;DHT22;9914;51.008;4.300;2023-04-03T15:42:58;14.50;94.20
19538;DHT22;9914;51.008;4.300;2023-04-03T15:45:24;13.80;94.40
19538;DHT22;9914;51.008;4.300;2023-04-03T15:47:50;15.00;94.40
19538;DHT22;9914;51.008;4.300;2023-04-03T15:50:16;16.10;92.60
19538;DHT22;9914;51.008;4.300;2023-04-03T15:52:41;16.10;91.30
19538;DHT22;9914;51.008;4.300;2023-04-03T15:55:07;16.00;91.60
19538;DHT22;9914;51.008;4.300;2023-04-03T15:57:33;16.70;91.40
19538;DHT22;9914;51.008;4.300;2023-04-03T15:59:58;17.20;90.80
19538;DHT22;9914;51.008;4.300;2023-04-03T16:02:24;17.10;89.60
19538;DHT22;9914;51.008;4.300;2023-04-03T16:04:54;16.90;88.90
19538;DHT22;9914;51.008;4.300;2023-04-03T16:07:20;15.90;89.60
19538;DHT22;9914;51.008;4.300;2023-04-03T16:09:45;15.40;90.20
19538;DHT22;9914;51.008;4.300;2023-04-03T16:12:11;15.40;90.20
19538;DHT22;9914;51.008;4.300;2023-04-03T16:14:37;16.00;90.00
19538;DHT22;9914;51.008;4.300;2023-04-03T16:17:02;16.60;88.90
19538;DHT22;9914;51.008;4.300;2023-04-03T16:19:29;15.50;89.50
19538;DHT22;9914;51.008;4.300;2023-04-03T16:21:55;15.40;90.20
19538;DHT22;9914;51.008;4.300;2023-04-03T16:24:22;16.00;90.40
19538;DHT22;9914;51.008;4.300;2023-04-03T16:26:50;15.70;89.90
19538;DHT22;9914;51.008;4.300;2023-04-03T16:29:16;16.20;88.70
19538;DHT22;9914;51.008;4.300;2023-04-03T16:31:41;16.20;89.40
19538;DHT22;9914;51.008;4.300;2023-04-03T16:34:07;16.30;88.10
19538;DHT22;9914;51.008;4.300;2023-04-03T16:36:33;16.10;87.90
19538;DHT22;9914;51.008;4.300;2023-04-03T16:38:58;15.90;89.50
19538;DHT22;9914;51.008;4.300;2023-04-03T16:41:24;15.70;89.90
19538;DHT22;9914;51.008;4.300;2023-04-03T16:43:50;15.80;90.10
19538;DHT22;9914;51.008;4.300;2023-04-03T16:46:15;15.60;90.00
19538;DHT22;9914;51.008;4.300;2023-04-03T16:48:41;15.10;90.90
19538;DHT22;9914;51.008;4.300;2023-04-03T16:51:07;15.10;91.50
19538;DHT22;9914;51.008;4.300;2023-04-03T16:53:32;16.10;90.80
19538;DHT22;9914;51.008;4.300;2023-04-03T16:55:58;15.70;90.90
19538;DHT22;9914;51.008;4.300;2023-04-03T16:58:24;15.30;91.50
19538;DHT22;9914;51.008;4.300;2023-04-03T17:00:50;15.20;91.40
19538;DHT22;9914;51.008;4.300;2023-04-03T17:03:16;15.20;91.70
19538;DHT22;9914;51.008;4.300;2023-04-03T17:05:41;15.80;91.20
19538;DHT22;9914;51.008;4.300;2023-04-03T17:08:08;16.10;91.10
19538;DHT22;9914;51.008;4.300;2023-04-03T17:10:34;15.50;91.20
19538;DHT22;9914;51.008;4.300;2023-04-03T17:13:00;15.50;91.60
19538;DHT22;9914;51.008;4.300;2023-04-03T17:15:26;15.00;92.00
19538;DHT22;9914;51.008;4.300;2023-04-03T17:17:52;14.20;93.10
19538;DHT22;9914;51.008;4.300;2023-04-03T17:20:18;14.30;93.30
19538;DHT22;9914;51.008;4.300;2023-04-03T17:22:44;13.90;93.60
19538;DHT22;9914;51.008;4.300;2023-04-03T17:25:10;13.00;94.70
19538;DHT22;9914;51.008;4.300;2023-04-03T17:27:36;12.10;96.10
19538;DHT22;9914;51.008;4.300;2023-04-03T17:30:03;11.60;97.30
19538;DHT22;9914;51.008;4.300;2023-04-03T17:32:29;11.30;97.90
19538;DHT22;9914;51.008;4.300;2023-04-03T17:34:55;11.00;98.50
19538;DHT22;9914;51.008;4.300;2023-04-03T17:37:20;10.70;99.10
19538;DHT22;9914;51.008;4.300;2023-04-03T17:39:46;10.70;99.60
19538;DHT22;9914;51.008;4.300;2023-04-03T17:42:11;10.40;99.80
19538;DHT22;9914;51.008;4.300;2023-04-03T17:44:37;10.40;99.90
19538;DHT22;9914;51.008;4.300;2023-04-03T17:47:03;10.40;99.90
19538;DHT22;9914;51.008;4.300;2023-04-03T17:49:29;10.20;99.90
19538;DHT22;9914;51.008;4.300;2023-04-03T17:51:54;10.00;99.90
19538;DHT22;9914;51.008;4.300;2023-04-03T17:54:20;10.00;99.90